createdAt,value
2019-02-16T00:02:14.739Z,90.60
2019-02-16T00:04:45.493Z,90.50
2019-02-16T00:07:16.239Z,90.70
2019-02-16T00:09:47.255Z,90.80
2019-02-16T00:12:18.524Z,90.80
2019-02-16T00:14:49.243Z,90.80
2019-02-16T00:17:20.023Z,91.00
2019-02-16T00:19:51.109Z,91.30
2019-02-16T00:22:21.844Z,91.20
2019-02-16T00:24:52.584Z,91.20
2019-02-16T00:27:23.298Z,91.20
2019-02-16T00:29:54.059Z,91.50
2019-02-16T00:32:25.066Z,91.70
2019-02-16T00:34:56.475Z,91.70
2019-02-16T00:37:27.203Z,91.90
2019-02-16T00:39:57.976Z,92.10
2019-02-16T00:42:28.707Z,92.10
2019-02-16T00:44:59.754Z,92.00
2019-02-16T00:47:30.492Z,92.20
2019-02-16T00:50:01.578Z,92.30
2019-02-16T00:52:32.494Z,92.40
2019-02-16T00:55:03.439Z,92.30
2019-02-16T00:57:34.166Z,92.40
2019-02-16T01:00:05.870Z,92.50
2019-02-16T01:02:36.579Z,92.80
2019-02-16T01:05:07.510Z,92.80
2019-02-16T01:07:38.255Z,93.00
2019-02-16T01:10:09.803Z,93.20
2019-02-16T01:12:40.673Z,93.40
2019-02-16T01:15:11.484Z,93.40
2019-02-16T01:17:42.261Z,93.50
2019-02-16T01:20:13.240Z,93.60
2019-02-16T01:22:44.223Z,93.80
2019-02-16T01:25:15.320Z,93.90
2019-02-16T01:27:46.028Z,93.70
2019-02-16T01:30:16.838Z,93.90
2019-02-16T01:32:48.056Z,94.00
2019-02-16T01:35:19.008Z,94.10
2019-02-16T01:37:49.786Z,94.40
2019-02-16T01:40:21.135Z,94.40
2019-02-16T01:42:51.936Z,94.60
2019-02-16T01:45:22.939Z,94.50
2019-02-16T01:47:53.653Z,94.60
2019-02-16T01:50:25.375Z,94.70
2019-02-16T01:52:56.456Z,94.70
2019-02-16T01:55:27.455Z,95.00
2019-02-16T01:57:58.215Z,95.10
2019-02-16T02:00:29.296Z,95.40
2019-02-16T02:03:00.795Z,94.80
2019-02-16T02:05:31.559Z,94.80
2019-02-16T02:08:02.301Z,94.70
2019-02-16T02:10:33.284Z,94.60
2019-02-16T02:13:04.009Z,94.40
2019-02-16T02:15:34.825Z,94.20
2019-02-16T02:18:06.137Z,94.10
2019-02-16T02:20:36.896Z,93.60
2019-02-16T02:23:07.802Z,93.60
2019-02-16T02:25:38.554Z,93.70
2019-02-16T02:28:09.323Z,94.00
2019-02-16T02:30:40.751Z,94.10
2019-02-16T02:33:11.536Z,94.20
2019-02-16T02:35:42.342Z,94.10
2019-02-16T02:38:13.146Z,93.90
2019-02-16T02:40:43.877Z,93.80
2019-02-16T02:43:14.606Z,93.90
2019-02-16T02:45:45.988Z,93.80
2019-02-16T02:48:16.756Z,93.80
2019-02-16T02:50:48.073Z,94.10
2019-02-16T02:53:18.872Z,93.70
2019-02-16T02:55:49.644Z,93.70
2019-02-16T02:58:20.355Z,93.60
2019-02-16T03:00:51.089Z,93.80
2019-02-16T03:03:21.909Z,93.60
2019-02-16T03:05:53.067Z,94.10
2019-02-16T03:08:24.039Z,93.50
2019-02-16T03:10:55.107Z,93.70
2019-02-16T03:13:25.827Z,93.80
2019-02-16T03:15:56.906Z,93.90
2019-02-16T03:18:28.161Z,93.80
2019-02-16T03:20:59.148Z,93.80
2019-02-16T03:23:30.508Z,93.60
2019-02-16T03:26:21.866Z,93.90
2019-02-16T03:29:06.887Z,93.90
2019-02-16T03:32:12.325Z,94.20
2019-02-16T03:35:28.550Z,94.30
2019-02-16T03:38:35.322Z,94.40
2019-02-16T03:41:06.489Z,94.50
2019-02-16T03:43:37.254Z,94.80
2019-02-16T03:46:08.022Z,94.80
2019-02-16T03:48:38.861Z,94.80
2019-02-16T03:51:09.666Z,95.10
2019-02-16T03:53:40.392Z,95.30
2019-02-16T03:56:11.240Z,95.60
2019-02-16T03:58:41.963Z,95.90
2019-02-16T04:01:12.890Z,95.70
2019-02-16T04:03:43.996Z,95.80
2019-02-16T04:06:14.973Z,96.10
2019-02-16T04:08:46.101Z,95.90
2019-02-16T04:11:16.822Z,95.90
2019-02-16T04:13:47.534Z,96.20
2019-02-16T04:16:18.298Z,96.40
2019-02-16T04:18:49.075Z,96.50
2019-02-16T04:21:20.081Z,96.80
2019-02-16T04:23:50.826Z,97.00
2019-02-16T04:26:21.575Z,97.20
2019-02-16T04:28:52.722Z,97.20
2019-02-16T04:31:23.843Z,97.40
2019-02-16T04:33:54.917Z,97.50
2019-02-16T04:36:26.015Z,97.60
2019-02-16T04:38:56.772Z,97.60
2019-02-16T04:41:28.802Z,97.50
2019-02-16T04:43:59.834Z,97.40
2019-02-16T04:46:30.571Z,97.50
2019-02-16T04:49:01.371Z,97.40
2019-02-16T04:51:32.101Z,97.30
2019-02-16T04:54:03.356Z,97.30
2019-02-16T04:56:34.404Z,97.50
2019-02-16T04:59:05.250Z,97.30
2019-02-16T05:01:36.335Z,97.10
2019-02-16T05:04:07.492Z,97.10
2019-02-16T05:06:38.246Z,97.10
2019-02-16T05:09:09.407Z,97.10
2019-02-16T05:11:40.139Z,97.20
2019-02-16T05:14:10.901Z,97.50
2019-02-16T05:16:41.718Z,97.20
2019-02-16T05:19:12.459Z,97.20
2019-02-16T05:21:43.269Z,97.30
2019-02-16T05:24:14.315Z,97.30
2019-02-16T05:26:45.608Z,97.20
2019-02-16T05:29:16.415Z,97.10
2019-02-16T05:31:47.376Z,97.00
2019-02-16T05:34:18.083Z,97.10
2019-02-16T05:36:48.851Z,96.80
2019-02-16T05:39:19.597Z,96.90
2019-02-16T05:41:50.352Z,97.00
2019-02-16T05:44:21.118Z,97.00
2019-02-16T05:46:52.595Z,97.10
2019-02-16T05:49:23.350Z,97.20
2019-02-16T05:51:54.079Z,97.40
2019-02-16T05:54:24.789Z,97.20
2019-02-16T05:56:56.039Z,97.10
2019-02-16T05:59:26.895Z,96.70
2019-02-16T06:01:57.752Z,96.80
2019-02-16T06:04:28.914Z,96.70
2019-02-16T06:07:00.236Z,96.60
2019-02-16T06:09:31.239Z,96.60
2019-02-16T06:12:01.976Z,96.60
2019-02-16T06:14:32.980Z,96.50
2019-02-16T06:17:03.802Z,96.80
2019-02-16T06:19:34.535Z,96.80
2019-02-16T06:22:05.275Z,96.60
2019-02-16T06:24:36.170Z,96.60
2019-02-16T06:27:06.952Z,96.80
2019-02-16T06:29:37.991Z,96.90
2019-02-16T06:32:09.982Z,97.00
2019-02-16T06:34:41.038Z,96.80
2019-02-16T06:37:22.068Z,96.70
2019-02-16T06:39:52.914Z,96.80
2019-02-16T06:42:24.999Z,96.90
2019-02-16T06:44:55.733Z,96.80
2019-02-16T06:47:27.330Z,96.80
2019-02-16T06:49:58.046Z,97.00
2019-02-16T06:52:28.865Z,97.00
2019-02-16T06:55:00.456Z,97.00
2019-02-16T06:57:32.258Z,97.00
2019-02-16T07:00:03.568Z,96.90
2019-02-16T07:02:35.330Z,96.90
2019-02-16T07:05:06.210Z,97.00
2019-02-16T07:07:37.189Z,96.90
2019-02-16T07:10:08.619Z,96.40
2019-02-16T07:12:41.116Z,96.40
2019-02-16T07:15:12.417Z,96.40
2019-02-16T07:17:51.236Z,96.50
2019-02-16T07:20:23.808Z,96.30
2019-02-16T07:22:54.654Z,96.40
2019-02-16T07:25:25.609Z,96.20
2019-02-16T07:27:56.671Z,96.00
2019-02-16T07:30:27.426Z,96.10
2019-02-16T07:32:58.162Z,95.80
2019-02-16T07:35:29.045Z,95.50
2019-02-16T07:37:59.797Z,95.50
2019-02-16T07:40:30.538Z,94.60
2019-02-16T07:43:03.640Z,94.10
2019-02-16T07:45:45.671Z,93.20
2019-02-16T07:48:20.630Z,91.50
2019-02-16T07:51:09.403Z,90.00
2019-02-16T07:53:53.470Z,85.50
2019-02-16T07:56:32.066Z,79.80
2019-02-16T07:59:10.498Z,70.80
2019-02-16T08:02:07.429Z,61.80
2019-02-16T08:05:11.860Z,58.10
2019-02-16T08:07:56.009Z,54.80
2019-02-16T08:10:45.839Z,51.50
2019-02-16T08:13:23.595Z,52.90
2019-02-16T08:16:25.978Z,50.70
2019-02-16T08:19:23.116Z,49.60
2019-02-16T08:22:03.002Z,46.20
2019-02-16T08:24:52.825Z,45.00
2019-02-16T08:27:41.422Z,44.20
2019-02-16T08:30:25.871Z,42.70
2019-02-16T08:33:06.322Z,44.00
2019-02-16T08:35:47.207Z,50.00
2019-02-16T08:38:46.430Z,51.60
2019-02-16T08:41:34.964Z,48.70
2019-02-16T08:44:17.579Z,45.40
2019-02-16T08:47:06.291Z,43.00
2019-02-16T08:49:56.744Z,41.40
2019-02-16T08:52:34.835Z,39.30
2019-02-16T08:55:27.596Z,37.70
2019-02-16T08:58:07.138Z,37.00
2019-02-16T09:01:06.007Z,35.30
2019-02-16T09:04:14.243Z,34.60
2019-02-16T09:06:51.215Z,33.70
2019-02-16T09:09:39.767Z,34.40
2019-02-16T09:12:17.197Z,35.30
2019-02-16T09:14:53.936Z,34.80
2019-02-16T09:17:42.672Z,35.40
2019-02-16T09:20:31.502Z,34.30
2019-02-16T09:23:26.756Z,32.90
2019-02-16T09:26:15.698Z,30.70
2019-02-16T09:29:12.624Z,29.30
2019-02-16T09:32:09.096Z,28.20
2019-02-16T09:34:50.667Z,28.40
2019-02-16T09:37:39.215Z,28.00
2019-02-16T09:40:31.285Z,28.40
2019-02-16T09:43:09.803Z,27.30
2019-02-16T09:46:06.245Z,27.00
2019-02-16T09:48:43.110Z,27.10
2019-02-16T09:51:20.167Z,26.40
2019-02-16T09:54:22.688Z,26.60
2019-02-16T09:57:03.915Z,27.60
2019-02-16T09:59:55.682Z,27.60
2019-02-16T10:02:35.742Z,27.50
2019-02-16T10:05:24.380Z,28.30
2019-02-16T10:08:22.652Z,28.70
2019-02-16T10:11:04.057Z,28.60
2019-02-16T10:13:54.163Z,28.20
2019-02-16T10:16:44.141Z,28.20
2019-02-16T10:19:28.471Z,28.50
2019-02-16T10:22:27.262Z,28.10
2019-02-16T10:25:18.208Z,28.80
2019-02-16T10:28:06.591Z,29.20
2019-02-16T10:30:55.146Z,28.90
2019-02-16T10:33:42.083Z,28.50
2019-02-16T10:36:26.854Z,28.90
2019-02-16T10:39:14.298Z,28.20
2019-02-16T10:42:04.205Z,28.00
2019-02-16T10:44:42.088Z,29.70
2019-02-16T10:47:21.562Z,30.60
2019-02-16T10:50:03.071Z,30.30
2019-02-16T10:52:50.963Z,30.80
2019-02-16T10:55:48.272Z,32.40
2019-02-16T10:58:34.666Z,32.90
2019-02-16T11:01:12.085Z,32.20
2019-02-16T11:03:56.512Z,32.90
2019-02-16T11:06:33.172Z,32.50
2019-02-16T11:09:22.766Z,34.40
2019-02-16T11:12:31.697Z,35.50
2019-02-16T11:15:25.132Z,36.40
2019-02-16T11:18:17.024Z,37.50
2019-02-16T11:21:09.961Z,38.80
2019-02-16T11:23:58.205Z,38.30
2019-02-16T11:26:41.606Z,38.20
2019-02-16T11:29:31.646Z,37.30
2019-02-16T11:32:21.821Z,37.70
2019-02-16T11:35:23.300Z,38.60
2019-02-16T11:38:03.468Z,38.90
2019-02-16T11:41:05.824Z,37.80
2019-02-16T11:43:58.317Z,38.30
2019-02-16T11:46:48.491Z,38.20
2019-02-16T11:49:27.279Z,37.90
2019-02-16T11:52:14.585Z,38.40
2019-02-16T11:55:14.052Z,39.00
2019-02-16T11:57:58.871Z,39.50
2019-02-16T12:00:49.165Z,39.10
2019-02-16T12:03:37.849Z,37.50
2019-02-16T12:06:24.273Z,38.00
2019-02-16T12:09:05.783Z,39.30
2019-02-16T12:11:59.994Z,40.80
2019-02-16T12:14:39.128Z,39.60
2019-02-16T12:17:24.231Z,39.10
2019-02-16T12:20:19.951Z,39.20
2019-02-16T12:23:12.632Z,40.20
2019-02-16T12:25:55.989Z,39.70
2019-02-16T12:28:37.850Z,40.80
2019-02-16T12:31:26.462Z,41.00
2019-02-16T12:34:22.109Z,39.60
2019-02-16T12:37:11.963Z,45.60
2019-02-16T12:39:48.362Z,71.80
2019-02-16T12:42:37.187Z,51.80
2019-02-16T12:45:34.107Z,42.00
2019-02-16T12:48:10.968Z,40.10
2019-02-16T12:51:06.708Z,38.30
2019-02-16T12:53:59.958Z,39.30
2019-02-16T12:56:41.873Z,40.50
2019-02-16T12:59:17.173Z,39.50
2019-02-16T13:01:56.851Z,42.90
2019-02-16T13:04:39.856Z,43.20
2019-02-16T13:07:21.067Z,41.40
2019-02-16T13:10:11.092Z,41.90
2019-02-16T13:12:57.901Z,42.30
2019-02-16T13:15:39.625Z,44.10
2019-02-16T13:18:25.555Z,43.70
2019-02-16T13:21:18.472Z,44.70
2019-02-16T13:23:59.285Z,43.50
2019-02-16T13:26:48.882Z,43.50
2019-02-16T13:29:27.435Z,43.70
2019-02-16T13:32:15.424Z,45.00
2019-02-16T13:34:59.464Z,44.70
2019-02-16T13:37:48.339Z,45.20
2019-02-16T13:40:35.400Z,43.30
2019-02-16T13:43:12.466Z,43.60
2019-02-16T13:45:53.686Z,43.00
2019-02-16T13:48:35.177Z,44.00
2019-02-16T13:51:14.264Z,43.70
2019-02-16T13:54:10.130Z,43.00
2019-02-16T13:57:09.144Z,43.30
2019-02-16T14:00:02.084Z,43.90
2019-02-16T14:03:01.484Z,45.30
2019-02-16T14:05:45.247Z,44.90
2019-02-16T14:08:25.960Z,50.00
2019-02-16T14:11:03.110Z,49.40
2019-02-16T14:14:02.270Z,43.50
2019-02-16T14:16:40.162Z,44.60
2019-02-16T14:19:12.303Z,46.20
2019-02-16T14:21:45.914Z,46.40
2019-02-16T14:24:18.716Z,46.90
2019-02-16T14:26:49.543Z,46.60
2019-02-16T14:29:20.348Z,46.50
2019-02-16T14:31:51.199Z,47.20
2019-02-16T14:34:22.941Z,48.30
2019-02-16T14:36:53.729Z,47.60
2019-02-16T14:39:30.024Z,48.20
2019-02-16T14:42:01.183Z,49.10
2019-02-16T14:44:31.975Z,50.30
2019-02-16T14:47:03.067Z,49.20
2019-02-16T14:49:34.239Z,49.50
2019-02-16T14:52:05.320Z,50.00
2019-02-16T14:54:36.106Z,49.50
2019-02-16T14:57:06.670Z,49.80
2019-02-16T14:59:37.543Z,49.80
2019-02-16T15:02:08.612Z,51.50
2019-02-16T15:04:39.392Z,51.40
2019-02-16T15:07:10.191Z,51.70
2019-02-16T15:09:40.981Z,50.70
2019-02-16T15:12:13.133Z,51.10
2019-02-16T15:14:43.904Z,50.80
2019-02-16T15:17:14.656Z,51.20
2019-02-16T15:20:05.231Z,51.70
2019-02-16T15:22:36.016Z,52.20
2019-02-16T15:25:07.662Z,53.00
2019-02-16T15:27:38.509Z,52.00
2019-02-16T15:30:14.549Z,53.30
2019-02-16T15:32:46.560Z,53.70
2019-02-16T15:35:20.406Z,53.10
2019-02-16T15:37:50.794Z,52.90
2019-02-16T15:40:21.674Z,55.00
2019-02-16T15:42:52.530Z,56.40
2019-02-16T15:45:24.320Z,57.20
2019-02-16T15:47:55.087Z,57.00
2019-02-16T15:50:26.196Z,58.90
2019-02-16T15:52:56.948Z,58.90
2019-02-16T15:55:27.725Z,58.80
2019-02-16T15:57:58.485Z,59.60
2019-02-16T16:00:29.399Z,61.80
2019-02-16T16:03:00.227Z,63.10
2019-02-16T16:05:31.356Z,64.20
2019-02-16T16:08:19.040Z,66.50
2019-02-16T16:11:02.185Z,68.20
2019-02-16T16:13:55.194Z,69.60
2019-02-16T16:16:41.601Z,71.10
2019-02-16T16:19:20.831Z,72.80
2019-02-16T16:22:01.719Z,75.20
2019-02-16T16:24:47.310Z,77.10
2019-02-16T16:27:24.294Z,78.30
2019-02-16T16:30:23.398Z,78.50
2019-02-16T16:33:03.499Z,80.50
2019-02-16T16:35:50.461Z,83.40
2019-02-16T16:38:39.327Z,84.70
2019-02-16T16:41:28.160Z,85.20
2019-02-16T16:44:18.005Z,87.50
2019-02-16T16:47:04.847Z,89.20
2019-02-16T16:49:48.832Z,90.30
2019-02-16T16:52:35.115Z,91.10
2019-02-16T16:55:17.006Z,91.50
2019-02-16T16:58:05.503Z,92.10
2019-02-16T17:01:03.822Z,92.30
2019-02-16T17:03:48.380Z,92.70
2019-02-16T17:06:34.479Z,92.90
2019-02-16T17:09:25.031Z,93.10
2019-02-16T17:12:02.439Z,94.10
2019-02-16T17:14:46.811Z,94.30
2019-02-16T17:17:35.657Z,94.40
2019-02-16T17:20:24.895Z,94.80
2019-02-16T17:23:17.648Z,95.00
2019-02-16T17:26:18.551Z,95.10
2019-02-16T17:29:11.884Z,95.40
2019-02-16T17:32:04.773Z,95.70
2019-02-16T17:34:54.652Z,96.50
2019-02-16T17:37:32.828Z,96.70
2019-02-16T17:40:13.915Z,96.80
2019-02-16T17:43:02.585Z,97.30
2019-02-16T17:45:51.363Z,97.50
2019-02-16T17:48:39.893Z,97.70
2019-02-16T17:51:35.778Z,97.80
2019-02-16T17:54:17.098Z,98.10
2019-02-16T17:57:07.345Z,98.80
2019-02-16T17:59:42.928Z,99.10
2019-02-16T18:02:31.685Z,98.80
2019-02-16T18:05:27.506Z,98.90
2019-02-16T18:08:12.474Z,99.10
2019-02-16T18:11:03.913Z,99.20
2019-02-16T18:13:48.527Z,99.40
2019-02-16T18:16:32.923Z,99.70
2019-02-16T18:19:15.013Z,99.60
2019-02-16T18:21:57.106Z,99.80
2019-02-16T18:24:43.432Z,99.90
2019-02-16T18:27:32.139Z,99.90
2019-02-16T18:30:20.612Z,99.90
2019-02-16T18:33:09.295Z,99.90
2019-02-16T18:36:02.603Z,99.90
2019-02-16T18:38:55.267Z,99.90
2019-02-16T18:41:42.074Z,99.90
2019-02-16T18:44:35.036Z,99.90
2019-02-16T18:47:29.803Z,99.90
2019-02-16T18:50:25.575Z,99.90
2019-02-16T18:53:06.371Z,99.90
2019-02-16T18:56:02.553Z,99.90
2019-02-16T18:58:41.703Z,99.90
2019-02-16T19:01:44.045Z,99.90
2019-02-16T19:04:27.534Z,99.90
2019-02-16T19:07:10.632Z,99.90
2019-02-16T19:10:06.784Z,99.90
2019-02-16T19:13:00.733Z,99.90
2019-02-16T19:15:56.758Z,99.90
2019-02-16T19:18:37.341Z,99.90
2019-02-16T19:21:15.114Z,99.90
2019-02-16T19:23:51.268Z,99.90
2019-02-16T19:26:26.901Z,99.90
2019-02-16T19:29:16.031Z,99.90
2019-02-16T19:32:03.211Z,99.90
2019-02-16T19:34:52.592Z,99.90
2019-02-16T19:37:45.172Z,99.90
2019-02-16T19:40:33.784Z,99.90
2019-02-16T19:43:39.235Z,99.90
2019-02-16T19:46:20.396Z,99.90
2019-02-16T19:49:14.159Z,99.90
2019-02-16T19:52:07.700Z,99.90
2019-02-16T19:55:06.920Z,99.90
2019-02-16T19:57:52.328Z,99.90
2019-02-16T20:00:35.771Z,99.90
2019-02-16T20:03:25.632Z,99.90
2019-02-16T20:06:14.014Z,99.90
2019-02-16T20:08:56.821Z,99.90
2019-02-16T20:11:53.899Z,99.90
2019-02-16T20:14:39.829Z,99.90
2019-02-16T20:17:17.755Z,99.90
2019-02-16T20:20:16.664Z,99.90
2019-02-16T20:23:24.700Z,99.90
2019-02-16T20:26:14.406Z,99.90
2019-02-16T20:28:53.036Z,99.90
2019-02-16T20:31:30.547Z,99.90
2019-02-16T20:34:23.632Z,99.90
2019-02-16T20:37:07.247Z,99.90
2019-02-16T20:39:59.893Z,99.90
2019-02-16T20:42:45.184Z,99.90
2019-02-16T20:45:20.909Z,99.90
2019-02-16T20:47:59.963Z,99.90
2019-02-16T20:50:55.654Z,99.90
2019-02-16T20:53:44.498Z,99.90
2019-02-16T20:56:29.621Z,99.90
2019-02-16T20:59:19.512Z,99.90
2019-02-16T21:02:09.555Z,99.90
2019-02-16T21:04:49.157Z,99.90
2019-02-16T21:07:57.468Z,99.90
2019-02-16T21:10:46.280Z,99.90
2019-02-16T21:13:25.808Z,99.90
2019-02-16T21:16:05.740Z,99.90
2019-02-16T21:18:47.280Z,99.90
2019-02-16T21:21:35.770Z,99.90
2019-02-16T21:24:22.781Z,99.90
2019-02-16T21:27:18.560Z,99.90
2019-02-16T21:30:20.405Z,99.90
2019-02-16T21:33:19.567Z,99.90
2019-02-16T21:36:11.031Z,99.90
2019-02-16T21:39:03.169Z,99.90
2019-02-16T21:41:49.562Z,99.90
2019-02-16T21:44:44.279Z,99.90
2019-02-16T21:47:46.434Z,99.90
2019-02-16T21:50:35.178Z,99.90
2019-02-16T21:53:21.311Z,99.90
2019-02-16T21:56:05.220Z,99.90
2019-02-16T21:58:54.020Z,99.90
2019-02-16T22:01:55.950Z,99.90
2019-02-16T22:04:32.795Z,99.90
2019-02-16T22:07:23.049Z,99.90
2019-02-16T22:10:07.141Z,99.90
2019-02-16T22:12:55.279Z,99.90
2019-02-16T22:15:26.299Z,99.90
2019-02-16T22:17:57.088Z,99.90
2019-02-16T22:20:27.992Z,99.90
2019-02-16T22:22:59.075Z,99.90
2019-02-16T22:25:29.830Z,99.90
2019-02-16T22:28:00.586Z,99.90
2019-02-16T22:30:31.332Z,99.90
2019-02-16T22:33:02.107Z,99.90
2019-02-16T22:35:32.851Z,99.90
2019-02-16T22:38:03.749Z,99.90
2019-02-16T22:40:34.821Z,99.90
2019-02-16T22:43:06.897Z,99.90
2019-02-16T22:45:37.897Z,99.90
2019-02-16T22:48:14.275Z,99.90
2019-02-16T22:50:45.323Z,99.90
2019-02-16T22:53:21.261Z,99.90
2019-02-16T22:55:57.097Z,99.90
2019-02-16T22:58:31.682Z,99.90
2019-02-16T23:01:06.190Z,99.90
2019-02-16T23:03:37.693Z,99.90
2019-02-16T23:06:08.596Z,99.90
2019-02-16T23:08:39.691Z,99.90
2019-02-16T23:11:10.486Z,99.90
2019-02-16T23:13:41.351Z,99.90
2019-02-16T23:16:12.271Z,99.90
2019-02-16T23:18:43.122Z,99.90
2019-02-16T23:21:18.050Z,99.90
2019-02-16T23:23:49.005Z,99.90
2019-02-16T23:26:19.743Z,99.90
2019-02-16T23:28:53.530Z,99.90
2019-02-16T23:31:24.620Z,99.90
2019-02-16T23:33:55.571Z,99.90
2019-02-16T23:36:26.387Z,99.90
2019-02-16T23:38:57.537Z,99.90
2019-02-16T23:41:28.698Z,99.90
2019-02-16T23:43:59.529Z,99.90
2019-02-16T23:46:30.271Z,99.90
2019-02-16T23:49:01.039Z,99.90
2019-02-16T23:51:32.124Z,99.90
2019-02-16T23:54:03.186Z,99.90
2019-02-16T23:56:33.970Z,99.90
2019-02-16T23:59:04.767Z,99.90
